Time;durP1;ratioP1;P1;durP2;ratioP2;P2;SDS_P1;SDS_P2;PMS_P1;PMS_P2;Temp;Humidity;BMP_temperature;BMP_pressure;BME280_temperature;BME280_humidity;BME280_pressure;Samples;Min_cycle;Max_cycle;Signal;HPM_P1;HPM_P2
2022/04/18 00:02:18;;;;;;;6.13;2.47;;;;;;;4.00;64.87;96570.38;5023344;28;20049;-77
2022/04/18 00:04:44;;;;;;;4.47;2.30;;;;;;;4.00;63.96;96570.38;5025017;28;20033;-77
2022/04/18 00:07:10;;;;;;;5.03;2.30;;;;;;;4.06;63.98;96558.69;5010380;28;20464;-77
2022/04/18 00:09:36;;;;;;;4.70;2.17;;;;;;;4.05;64.02;96561.41;5022219;28;20686;-78
2022/04/18 00:12:03;;;;;;;3.60;2.10;;;;;;;4.03;64.75;96560.69;5020914;28;20052;-77
2022/04/18 00:14:29;;;;;;;4.83;2.40;;;;;;;3.92;65.05;96559.69;5012901;28;20459;-77
2022/04/18 00:16:55;;;;;;;5.53;2.53;;;;;;;3.93;65.25;96555.31;5044179;28;20474;-78
2022/04/18 00:19:21;;;;;;;5.23;2.30;;;;;;;3.87;65.30;96553.97;5024247;28;20462;-78
2022/04/18 00:21:46;;;;;;;5.30;2.70;;;;;;;3.82;65.04;96550.88;5024193;28;20558;-77
2022/04/18 00:24:14;;;;;;;5.63;2.30;;;;;;;3.78;66.03;96552.03;5024256;28;20037;-77
2022/04/18 00:26:42;;;;;;;4.97;2.40;;;;;;;3.72;66.03;96552.47;5029081;28;20159;-78
2022/04/18 00:29:07;;;;;;;7.37;2.50;;;;;;;3.70;64.37;96549.16;5028241;28;20510;-77
2022/04/18 00:31:33;;;;;;;6.07;2.33;;;;;;;3.74;65.26;96556.63;5026297;28;20483;-77
2022/04/18 00:33:59;;;;;;;5.50;2.53;;;;;;;3.77;64.69;96556.41;5025373;28;20033;-77
2022/04/18 00:36:25;;;;;;;5.23;2.27;;;;;;;3.73;65.00;96556.75;5024306;28;20889;-77
2022/04/18 00:38:51;;;;;;;3.90;1.93;;;;;;;3.75;64.43;96547.88;5021270;28;20086;-78
2022/04/18 00:41:16;;;;;;;4.73;2.10;;;;;;;3.75;64.24;96537.47;5005591;28;20025;-77
2022/04/18 00:43:43;;;;;;;6.03;2.37;;;;;;;3.70;64.76;96547.38;5032989;28;20524;-78
2022/04/18 00:46:10;;;;;;;7.03;2.47;;;;;;;3.63;65.23;96538.34;5040821;28;20044;-79
2022/04/18 00:48:36;;;;;;;5.67;2.50;;;;;;;3.58;65.38;96540.44;5042125;28;20435;-76
2022/04/18 00:51:04;;;;;;;4.83;2.37;;;;;;;3.48;65.57;96537.66;5023594;28;20995;-77
2022/04/18 00:53:32;;;;;;;5.53;2.53;;;;;;;3.43;65.84;96538.94;5022435;28;20455;-77
2022/04/18 00:55:58;;;;;;;6.27;2.37;;;;;;;3.37;66.54;96528.97;5026196;28;20493;-77
2022/04/18 00:58:24;;;;;;;6.20;2.80;;;;;;;3.36;66.97;96528.13;5002403;28;20874;-77
2022/04/18 01:00:51;;;;;;;4.97;2.40;;;;;;;3.36;67.25;96530.75;5022965;28;20452;-77
2022/04/18 01:03:19;;;;;;;4.40;2.97;;;;;;;3.28;67.21;96527.81;5005796;28;20534;-78
2022/04/18 01:05:46;;;;;;;5.33;2.43;;;;;;;3.29;67.71;96522.53;5024337;28;20460;-77
2022/04/18 01:08:13;;;;;;;6.03;2.63;;;;;;;3.30;67.75;96513.78;5017452;28;20563;-76
2022/04/18 01:10:39;;;;;;;5.37;2.20;;;;;;;3.35;66.82;96518.66;5026486;28;20518;-77
2022/04/18 01:13:05;;;;;;;6.03;2.40;;;;;;;3.39;66.47;96519.31;5008200;28;20558;-77
2022/04/18 01:15:56;;;;;;;4.55;2.30;;;;;;;3.31;66.95;96510.25;5024335;28;20473;-76
2022/04/18 01:18:51;;;;;;;6.67;2.43;;;;;;;3.33;66.40;96520.56;5029526;28;20034;-77
2022/04/18 01:21:46;;;;;;;4.73;2.47;;;;;;;3.35;66.22;96515.22;5014412;28;20441;-77
2022/04/18 01:30:19;;;;;;;4.83;2.27;;;;;;;3.01;67.47;96504.59;5032625;28;20503;-76
2022/04/18 01:32:45;;;;;;;6.67;2.43;;;;;;;2.98;67.49;96500.44;5010508;28;20479;-77
2022/04/18 01:35:11;;;;;;;5.23;2.23;;;;;;;2.95;68.10;96505.88;5023384;28;20464;-77
2022/04/18 01:37:37;;;;;;;6.50;2.50;;;;;;;2.94;67.57;96501.59;5022709;28;20112;-77
2022/04/18 01:40:06;;;;;;;5.40;2.90;;;;;;;2.97;67.79;96498.78;5025382;28;20037;-77
2022/04/18 01:42:32;;;;;;;4.30;2.10;;;;;;;2.94;67.61;96496.38;5008700;28;20486;-77
2022/04/18 01:45:00;;;;;;;5.60;2.40;;;;;;;3.00;67.84;96489.94;5027881;28;20470;-77
2022/04/18 01:47:27;;;;;;;4.40;1.90;;;;;;;2.87;68.40;96492.56;5010021;28;20461;-77
2022/04/18 01:49:53;;;;;;;4.77;2.07;;;;;;;2.75;68.41;96496.84;5025607;28;20479;-77
2022/04/18 01:52:18;;;;;;;5.13;2.43;;;;;;;2.77;67.90;96481.97;5040711;28;20456;-78
2022/04/18 01:54:45;;;;;;;4.87;2.50;;;;;;;2.71;67.96;96484.97;5023361;28;20025;-77
2022/04/18 01:57:13;;;;;;;6.53;2.40;;;;;;;2.75;69.06;96481.25;5020822;28;20474;-77
2022/04/18 01:59:42;;;;;;;8.03;2.33;;;;;;;2.72;68.67;96485.84;5023818;28;20471;-78
2022/04/18 02:02:08;;;;;;;4.73;2.77;;;;;;;2.63;69.38;96487.28;5021921;28;20475;-78
2022/04/18 02:04:34;;;;;;;5.47;2.30;;;;;;;2.62;68.86;96490.00;5022745;28;20559;-77
2022/04/18 02:07:02;;;;;;;5.63;2.20;;;;;;;2.58;68.99;96485.00;5024399;28;20036;-77
2022/04/18 02:09:28;;;;;;;4.67;1.80;;;;;;;2.55;68.68;96482.59;5026108;28;20460;-78
2022/04/18 02:11:54;;;;;;;5.27;2.17;;;;;;;2.49;69.70;96480.44;5026453;28;20557;-77
2022/04/18 02:14:21;;;;;;;4.67;2.23;;;;;;;2.48;69.98;96478.78;5016426;28;20487;-77
2022/04/18 02:16:47;;;;;;;4.63;2.33;;;;;;;2.47;69.35;96479.69;5022005;28;20521;-77
2022/04/18 02:19:12;;;;;;;4.10;2.00;;;;;;;2.49;69.21;96475.22;5022339;28;20444;-77
2022/04/18 02:21:38;;;;;;;6.40;2.27;;;;;;;2.50;69.05;96471.69;5025362;28;20087;-77
2022/04/18 02:24:04;;;;;;;5.50;2.33;;;;;;;2.44;69.44;96461.72;5010290;28;20562;-77
2022/04/18 02:26:31;;;;;;;2.93;1.93;;;;;;;2.43;68.97;96467.84;5021410;28;20117;-77
2022/04/18 02:29:04;;;;;;;4.93;2.00;;;;;;;2.39;68.62;96463.81;5030249;28;20480;-77
2022/04/18 02:31:30;;;;;;;4.73;2.17;;;;;;;2.31;70.16;96466.06;5023958;28;20037;-77
2022/04/18 02:33:56;;;;;;;5.93;2.50;;;;;;;2.27;69.96;96462.03;5020541;28;20032;-77
2022/04/18 02:36:22;;;;;;;6.10;2.43;;;;;;;2.32;69.14;96462.56;5022093;28;20210;-77
2022/04/18 02:38:48;;;;;;;5.73;2.17;;;;;;;2.21;69.76;96462.44;5022657;28;20464;-77
2022/04/18 02:41:14;;;;;;;4.93;2.30;;;;;;;2.24;69.34;96454.44;5023372;28;20498;-77
2022/04/18 02:43:40;;;;;;;5.70;2.10;;;;;;;2.19;70.18;96456.53;5007006;28;20026;-77
2022/04/18 02:46:10;;;;;;;6.13;2.80;;;;;;;2.16;70.08;96452.38;5025825;28;20471;-77
2022/04/18 02:48:43;;;;;;;5.87;2.47;;;;;;;2.19;70.04;96448.75;5022332;28;21020;-77
2022/04/18 02:51:10;;;;;;;7.40;3.60;;;;;;;2.16;70.30;96449.78;5027651;28;20495;-77
2022/04/18 02:53:37;;;;;;;4.43;2.50;;;;;;;2.16;70.38;96446.34;5021444;28;20889;-76
2022/04/18 02:56:06;;;;;;;7.33;2.37;;;;;;;2.13;70.37;96448.22;5023605;28;21375;-77
2022/04/18 02:58:35;;;;;;;6.43;2.20;;;;;;;2.16;69.58;96454.13;5019367;28;20456;-77
2022/04/18 03:01:01;;;;;;;4.57;2.30;;;;;;;2.12;69.94;96445.72;5023665;28;20813;-77
2022/04/18 03:03:27;;;;;;;7.30;2.40;;;;;;;2.07;70.88;96443.41;5020604;28;20112;-77
2022/04/18 03:05:53;;;;;;;5.50;2.40;;;;;;;2.05;70.48;96440.13;5023413;28;20562;-77
2022/04/18 03:08:19;;;;;;;6.97;2.70;;;;;;;1.98;70.71;96436.28;5004967;28;21067;-77
2022/04/18 03:11:03;;;;;;;6.17;2.43;;;;;;;1.96;71.08;96440.72;5023178;28;20028;-77
2022/04/18 03:13:32;;;;;;;4.37;2.33;;;;;;;1.99;71.54;96440.53;5010021;28;20120;-76
2022/04/18 03:16:01;;;;;;;4.50;2.30;;;;;;;1.95;70.33;96436.47;5009906;28;20562;-77
2022/04/18 03:18:27;;;;;;;4.67;2.37;;;;;;;1.96;70.53;96434.72;5030361;28;20465;-77
2022/04/18 03:20:53;;;;;;;4.67;2.13;;;;;;;1.98;70.59;96430.22;5021007;28;20546;-77
2022/04/18 03:23:20;;;;;;;5.80;2.70;;;;;;;1.89;70.77;96422.13;5005467;28;20033;-77
2022/04/18 03:26:09;;;;;;;9.13;2.67;;;;;;;1.86;71.24;96424.09;5036317;28;20468;-76
2022/04/18 03:28:59;;;;;;;5.20;2.63;;;;;;;1.81;71.64;96426.16;5019088;28;20495;-77
2022/04/18 03:31:24;;;;;;;5.17;2.67;;;;;;;1.83;72.82;96424.31;5043538;28;20475;-77
2022/04/18 03:33:51;;;;;;;5.23;2.40;;;;;;;1.89;71.92;96423.91;5026741;28;20561;-76
2022/04/18 03:41:46;;;;;;;8.40;2.77;;;;;;;1.76;72.77;96415.28;5035994;28;20503;-77
2022/04/18 03:44:12;;;;;;;6.40;2.80;;;;;;;1.62;73.50;96413.59;5022708;28;20474;-77
2022/04/18 03:46:38;;;;;;;6.67;2.60;;;;;;;1.56;74.18;96411.38;5022789;28;20821;-77
2022/04/18 03:49:04;;;;;;;5.03;2.20;;;;;;;1.59;74.52;96413.78;5037569;28;20029;-77
2022/04/18 03:51:33;;;;;;;5.23;2.70;;;;;;;1.55;74.86;96413.16;5017793;28;20463;-77
2022/04/18 03:53:59;;;;;;;6.43;3.00;;;;;;;1.55;74.89;96415.75;5018459;28;20462;-77
2022/04/18 03:56:29;;;;;;;6.70;2.63;;;;;;;1.63;75.09;96417.81;5010231;28;20455;-77
2022/04/18 03:59:13;;;;;;;7.60;2.50;;;;;;;1.58;75.59;96415.53;5022743;28;21013;-77
2022/04/18 04:01:57;;;;;;;6.15;2.28;;;;;;;1.56;75.85;96409.63;5021423;28;20494;-78
2022/04/18 04:04:25;;;;;;;6.80;2.90;;;;;;;1.51;76.24;96409.09;5022931;28;20033;-76
2022/04/18 04:06:51;;;;;;;6.03;2.40;;;;;;;1.50;75.31;96409.19;5023531;28;20469;-77
2022/04/18 04:09:18;;;;;;;5.37;2.37;;;;;;;1.42;75.72;96409.69;5012803;28;20479;-78
2022/04/18 04:11:44;;;;;;;5.30;2.53;;;;;;;1.33;76.86;96415.44;5025911;28;20463;-77
2022/04/18 04:14:09;;;;;;;6.17;2.73;;;;;;;1.21;78.31;96409.31;5012189;28;20044;-78
2022/04/18 04:16:37;;;;;;;7.87;3.03;;;;;;;1.16;79.15;96411.34;5007030;28;20041;-78
2022/04/18 04:19:03;;;;;;;6.33;3.13;;;;;;;1.24;78.21;96408.25;5017449;28;20033;-78
2022/04/18 04:21:29;;;;;;;7.13;3.10;;;;;;;1.23;78.56;96404.84;5009456;28;20464;-77
2022/04/18 04:23:56;;;;;;;6.40;2.87;;;;;;;1.23;79.13;96404.84;5012790;28;20120;-78
2022/04/18 04:26:38;;;;;;;7.63;2.53;;;;;;;1.29;78.31;96411.41;5021818;28;20472;-78
2022/04/18 04:29:05;;;;;;;5.30;2.70;;;;;;;1.15;78.76;96415.69;5014234;28;20522;-76
2022/04/18 04:31:36;;;;;;;5.63;2.43;;;;;;;1.18;78.55;96418.09;5016728;28;20463;-77
2022/04/18 04:34:02;;;;;;;5.30;2.67;;;;;;;1.29;78.06;96408.81;5002945;28;21141;-77
2022/04/18 04:36:32;;;;;;;5.43;2.40;;;;;;;1.33;77.65;96415.44;5027332;28;20459;-78
2022/04/18 04:38:58;;;;;;;6.57;2.53;;;;;;;1.33;77.96;96411.09;5005641;28;20467;-77
2022/04/18 04:41:35;;;;;;;5.40;2.67;;;;;;;1.31;77.55;96418.16;5022542;28;20509;-77
2022/04/18 04:44:02;;;;;;;5.77;2.63;;;;;;;1.36;77.19;96418.69;5016853;28;20462;-76
2022/04/18 04:46:36;;;;;;;7.90;2.93;;;;;;;1.41;77.47;96413.22;5009946;28;20617;-77
2022/04/18 04:49:10;;;;;;;4.85;2.83;;;;;;;1.45;76.76;96412.09;5009962;28;20571;-76
2022/04/18 04:51:39;;;;;;;6.10;2.93;;;;;;;1.54;76.64;96402.88;5030066;28;20032;-77
2022/04/18 04:54:05;;;;;;;7.60;2.90;;;;;;;1.60;76.05;96402.47;5010223;28;20459;-77
2022/04/18 04:56:34;;;;;;;6.77;2.57;;;;;;;1.71;75.90;96401.75;5021674;28;20467;-77
2022/04/18 04:59:03;;;;;;;7.80;3.87;;;;;;;1.81;75.84;96405.41;5030574;28;20601;-77
2022/04/18 05:01:29;;;;;;;7.03;3.23;;;;;;;1.96;74.96;96399.22;5022187;28;21976;-77
2022/04/18 05:04:01;;;;;;;6.80;2.80;;;;;;;2.13;73.69;96401.50;5032798;28;20501;-77
2022/04/18 05:06:28;;;;;;;6.87;2.70;;;;;;;2.17;73.97;96393.53;5032274;28;20444;-77
2022/04/18 05:08:55;;;;;;;4.93;2.13;;;;;;;2.30;72.71;96399.53;5018915;28;20641;-78
2022/04/18 05:11:23;;;;;;;7.87;3.17;;;;;;;2.48;70.98;96395.72;5017578;28;20475;-78
2022/04/18 05:13:53;;;;;;;7.40;3.10;;;;;;;2.53;70.98;96393.59;5019930;28;20837;-78
2022/04/18 05:16:40;;;;;;;6.67;2.77;;;;;;;2.80;70.16;96395.22;5013975;28;20471;-78
2022/04/18 05:19:24;;;;;;;5.20;2.67;;;;;;;2.97;68.43;96392.25;5046238;28;20419;-78
2022/04/18 05:22:00;;;;;;;5.00;2.63;;;;;;;2.94;68.25;96382.09;5020062;28;20474;-78
2022/04/18 05:24:32;;;;;;;5.93;2.90;;;;;;;3.04;68.42;96382.25;5016976;28;20547;-77
2022/04/18 05:26:57;;;;;;;6.93;2.77;;;;;;;3.52;65.27;96380.50;5024059;28;20909;-78
2022/04/18 05:29:23;;;;;;;5.67;2.70;;;;;;;3.79;64.49;96379.44;5005248;28;20079;-77
2022/04/18 05:31:50;;;;;;;6.80;3.10;;;;;;;4.07;63.05;96382.56;5033002;28;20063;-77
2022/04/18 05:34:16;;;;;;;7.97;2.70;;;;;;;4.33;62.08;96383.19;5009715;28;21023;-78
2022/04/18 05:36:49;;;;;;;;;;;;;;;4.66;60.80;96383.19;5020212;28;20029;-77
2022/04/18 05:39:34;;;;;;;6.13;2.65;;;;;;;4.86;60.65;96386.00;5027557;28;20015;-78
2022/04/18 05:42:01;;;;;;;5.13;2.67;;;;;;;4.97;58.96;96388.63;5023664;28;20031;-78
2022/04/18 05:44:28;;;;;;;6.30;3.17;;;;;;;5.08;58.49;96392.97;5035698;28;20531;-78
2022/04/18 05:46:58;;;;;;;5.50;2.53;;;;;;;5.08;59.75;96390.38;5019147;28;21063;-78
2022/04/18 05:49:26;;;;;;;5.90;3.00;;;;;;;5.37;57.85;96390.66;5021538;28;20462;-78
2022/04/18 05:51:52;;;;;;;6.20;3.33;;;;;;;5.24;57.85;96390.81;5030308;28;20545;-78
2022/04/18 05:54:18;;;;;;;6.10;2.93;;;;;;;5.43;58.06;96391.00;5032976;28;20551;-78
2022/04/18 05:56:53;;;;;;;5.47;2.53;;;;;;;5.90;57.13;96388.91;5010468;28;20024;-78
2022/04/18 05:59:30;;;;;;;7.37;2.70;;;;;;;5.87;56.90;96388.34;5031691;28;20467;-78
2022/04/18 06:02:01;;;;;;;6.57;2.53;;;;;;;6.11;56.59;96390.72;5042975;28;20029;-78
2022/04/18 06:04:33;;;;;;;7.77;2.90;;;;;;;6.32;55.43;96391.53;5034383;28;20039;-79
2022/04/18 06:07:16;;;;;;;14.18;4.65;;;;;;;6.58;54.69;96388.50;5045891;28;20065;-77
2022/04/18 06:09:45;;;;;;;7.37;3.77;;;;;;;6.71;54.30;96390.91;5030856;28;20048;-78
2022/04/18 06:12:11;;;;;;;8.63;4.10;;;;;;;6.73;53.91;96391.59;5026382;28;20083;-78
2022/04/18 06:14:39;;;;;;;7.00;3.40;;;;;;;6.89;53.44;96389.31;5015014;28;20560;-78
2022/04/18 06:17:06;;;;;;;6.70;2.67;;;;;;;6.53;54.92;96388.88;5037570;28;20025;-78
2022/04/18 06:19:33;;;;;;;6.43;2.80;;;;;;;6.55;54.84;96392.19;5021652;28;20398;-78
2022/04/18 06:22:01;;;;;;;9.80;4.90;;;;;;;6.64;54.20;96392.34;5018189;28;20167;-78
2022/04/18 06:24:27;;;;;;;11.13;4.27;;;;;;;7.06;52.54;96382.63;5022635;28;20032;-78
2022/04/18 06:27:11;;;;;;;6.07;2.87;;;;;;;7.19;51.71;96385.81;5035539;28;20512;-78
2022/04/18 06:29:37;;;;;;;5.73;2.83;;;;;;;7.83;51.25;96381.03;5044492;28;20029;-78
2022/04/18 06:32:05;;;;;;;5.93;2.80;;;;;;;7.92;50.54;96382.84;5032774;28;20049;-77
2022/04/18 06:34:31;;;;;;;6.23;2.70;;;;;;;8.06;50.34;96378.97;5049069;28;20036;-78
2022/04/18 06:37:05;;;;;;;5.30;2.77;;;;;;;8.12;50.09;96378.41;5030994;28;20558;-78
2022/04/18 06:39:36;;;;;;;5.87;2.63;;;;;;;8.55;49.06;96372.69;5031281;28;20052;-78
2022/04/18 06:42:15;;;;;;;4.90;2.60;;;;;;;8.98;47.79;96371.25;5015962;28;20049;-78
2022/04/18 06:44:48;;;;;;;5.43;2.80;;;;;;;8.79;47.97;96368.72;5039983;28;20148;-79
2022/04/18 06:47:15;;;;;;;5.53;3.07;;;;;;;9.19;48.14;96371.00;5010371;28;20042;-78
2022/04/18 06:50:13;;;;;;;6.07;2.97;;;;;;;9.39;47.52;96369.09;5035186;28;20050;-78
2022/04/18 06:52:57;;;;;;;6.00;2.93;;;;;;;9.95;46.55;96361.88;5053768;28;20944;-79
2022/04/18 06:56:58;;;;;;;6.00;2.90;;;;;;;10.41;44.42;96363.38;5033676;28;20536;-79
2022/04/18 06:58:15;;;;;;;5.70;3.00;;;;;;;9.94;46.36;96370.72;5023865;28;20045;-79
2022/04/18 07:00:41;;;;;;;8.60;3.53;;;;;;;10.21;44.45;96367.97;5031115;28;20056;-80
2022/04/18 07:03:11;;;;;;;7.23;2.90;;;;;;;9.96;45.64;96366.13;5019961;28;20111;-79
2022/04/18 07:05:38;;;;;;;6.47;3.00;;;;;;;9.67;46.88;96365.41;5034606;28;20119;-79
2022/04/18 07:08:05;;;;;;;5.13;2.87;;;;;;;10.37;45.29;96369.94;5021531;28;20017;-79
2022/04/18 07:10:30;;;;;;;6.47;3.27;;;;;;;10.01;45.90;96366.53;5022020;28;20059;-79
2022/04/18 07:12:56;;;;;;;6.07;3.50;;;;;;;10.73;43.54;96369.78;5033818;28;20458;-79
2022/04/18 07:15:22;;;;;;;6.70;3.93;;;;;;;10.99;43.25;96360.03;5011226;28;20057;-79
2022/04/18 07:17:49;;;;;;;8.23;3.40;;;;;;;11.60;42.04;96365.97;5029257;28;20071;-79
2022/04/18 07:20:14;;;;;;;7.53;3.60;;;;;;;11.37;42.97;96368.41;5030498;28;20553;-79
2022/04/18 07:22:40;;;;;;;6.47;2.90;;;;;;;11.83;41.42;96370.63;5033810;28;20053;-80
2022/04/18 07:25:10;;;;;;;6.60;3.77;;;;;;;11.76;41.87;96368.63;5033217;28;20405;-79
2022/04/18 07:27:39;;;;;;;6.03;3.10;;;;;;;12.42;40.29;96364.19;5018143;28;20060;-80
2022/04/18 07:30:06;;;;;;;5.67;3.10;;;;;;;12.43;39.91;96367.66;5012190;28;20047;-80
2022/04/18 07:32:43;;;;;;;6.80;3.60;;;;;;;13.53;38.80;96360.69;5032642;28;20068;-79
2022/04/18 07:35:14;;;;;;;8.70;3.50;;;;;;;13.98;37.28;96358.22;5031087;28;20040;-79
2022/04/18 07:40:39;;;;;;;6.50;2.90;;;;;;;14.33;35.57;96362.88;5028003;28;20115;-79
2022/04/18 07:43:09;;;;;;;5.67;2.97;;;;;;;15.17;34.72;96360.03;5018740;28;20029;-80
2022/04/18 07:45:36;;;;;;;6.03;2.97;;;;;;;15.27;33.88;96359.75;5047680;28;20029;-79
2022/04/18 07:48:04;;;;;;;6.50;3.53;;;;;;;15.36;32.68;96363.09;5019854;28;20226;-79
2022/04/18 07:53:16;;;;;;;7.20;2.93;;;;;;;15.00;33.24;96364.69;5025847;28;20040;-79
2022/04/18 07:55:51;;;;;;;6.43;3.53;;;;;;;15.26;32.53;96360.75;5029265;28;20029;-78
2022/04/18 07:58:18;;;;;;;7.40;4.13;;;;;;;15.40;33.34;96361.75;5010940;28;20064;-79
2022/04/18 08:00:44;;;;;;;6.50;3.30;;;;;;;14.91;33.93;96359.69;5033562;28;20060;-79
2022/04/18 08:03:09;;;;;;;7.23;3.10;;;;;;;14.71;33.49;96364.69;5046400;28;20056;-79
2022/04/18 08:06:02;;;;;;;6.53;3.07;;;;;;;15.84;32.57;96356.31;5049289;28;20124;-79
2022/04/18 08:08:38;;;;;;;6.23;3.47;;;;;;;15.86;32.59;96364.06;5027497;28;20037;-81
2022/04/18 08:11:05;;;;;;;6.50;3.37;;;;;;;16.50;31.32;96353.44;5019210;28;20033;-78
2022/04/18 08:13:32;;;;;;;5.37;2.87;;;;;;;15.93;30.58;96362.34;5013272;28;20041;-79
2022/04/18 08:16:17;;;;;;;6.77;3.53;;;;;;;16.73;29.82;96355.81;5032639;28;20052;-80
2022/04/18 08:18:50;;;;;;;6.70;3.80;;;;;;;16.51;30.67;96360.38;5035992;28;20090;-78
2022/04/18 08:21:23;;;;;;;9.17;4.67;;;;;;;16.67;29.91;96352.09;5019975;28;20042;-78
2022/04/18 08:23:53;;;;;;;8.50;3.23;;;;;;;15.77;31.49;96372.16;5031884;28;20028;-79
2022/04/18 08:26:37;;;;;;;5.60;3.03;;;;;;;16.29;30.45;96358.75;5025500;28;20639;-78
2022/04/18 08:29:18;;;;;;;7.37;3.10;;;;;;;15.47;31.69;96367.94;5034732;28;20588;-79
2022/04/18 08:32:15;;;;;;;7.13;3.17;;;;;;;15.53;30.54;96359.25;5006488;28;20044;-78
2022/04/18 08:34:41;;;;;;;5.83;3.37;;;;;;;13.80;32.92;96363.81;5020628;28;20037;-80
2022/04/18 08:37:11;;;;;;;9.17;5.00;;;;;;;15.70;32.05;96365.97;5022022;28;20202;-78
2022/04/18 08:39:56;;;;;;;7.70;4.20;;;;;;;17.00;30.21;96348.03;5049085;28;20044;-78
2022/04/18 08:42:25;;;;;;;5.97;3.20;;;;;;;16.32;29.24;96353.06;5032207;28;20114;-79
2022/04/18 08:44:54;;;;;;;5.23;2.80;;;;;;;16.43;29.87;96350.72;5038836;28;20366;-80
2022/04/18 08:52:51;;;;;;;7.33;4.00;;;;;;;15.22;30.81;96340.91;5025785;28;20033;-79
2022/04/18 08:55:34;;;;;;;6.23;2.97;;;;;;;15.39;30.21;96345.03;5037270;28;20110;-82
2022/04/18 08:58:14;;;;;;;5.63;3.10;;;;;;;15.87;31.08;96339.22;5034269;28;20162;-80
2022/04/18 09:00:41;;;;;;;5.73;3.33;;;;;;;14.80;31.18;96353.03;5047334;28;20096;-81
2022/04/18 09:03:26;;;;;;;7.27;3.20;;;;;;;15.44;31.21;96347.91;5054412;28;20052;-80
2022/04/18 09:06:12;;;;;;;7.23;3.30;;;;;;;15.44;31.64;96339.16;5041713;28;20051;-81
2022/04/18 09:08:43;;;;;;;9.07;5.03;;;;;;;15.08;31.34;96345.22;5038728;28;20695;-78
2022/04/18 09:11:11;;;;;;;6.87;3.30;;;;;;;14.58;30.56;96349.44;5013833;28;20130;-78
2022/04/18 09:13:43;;;;;;;4.43;2.47;;;;;;;15.11;30.03;96344.06;5003654;28;20027;-78
2022/04/18 09:16:17;;;;;;;6.37;2.97;;;;;;;15.92;28.90;96339.44;5016199;28;20490;-77
2022/04/18 09:18:43;;;;;;;6.70;2.90;;;;;;;15.54;29.65;96339.66;5014454;28;20053;-78
2022/04/18 09:21:22;;;;;;;5.23;2.43;;;;;;;16.64;28.62;96331.25;5022564;28;20060;-78
2022/04/18 09:23:49;;;;;;;5.93;3.10;;;;;;;16.32;29.10;96326.53;5020127;28;20402;-77
2022/04/18 09:26:29;;;;;;;4.27;2.50;;;;;;;16.62;28.21;96327.16;5038114;28;20048;-77
2022/04/18 09:29:07;;;;;;;6.00;2.70;;;;;;;15.69;28.54;96332.53;5024702;28;20029;-78
2022/04/18 09:31:41;;;;;;;6.00;2.77;;;;;;;15.39;28.65;96333.56;5036959;28;20028;-77
2022/04/18 09:34:19;;;;;;;5.10;2.57;;;;;;;16.78;27.74;96329.53;5014594;28;20128;-79
2022/04/18 09:36:45;;;;;;;7.97;2.95;;;;;;;15.81;28.40;96316.09;5016795;28;20041;-78
2022/04/18 09:39:10;;;;;;;4.70;2.67;;;;;;;15.89;28.64;96321.25;5018590;28;20037;-78
2022/04/18 09:42:08;;;;;;;6.17;2.90;;;;;;;14.66;29.99;96332.66;5014325;28;20028;-78
2022/04/18 09:44:53;;;;;;;5.55;2.92;;;;;;;15.85;30.08;96317.34;5016984;28;20033;-78
2022/04/18 09:47:23;;;;;;;7.30;3.33;;;;;;;15.73;28.32;96312.56;5001886;28;20503;-78
2022/04/18 09:49:50;;;;;;;5.93;2.93;;;;;;;14.94;28.80;96316.94;5015593;28;20481;-78
2022/04/18 09:52:25;;;;;;;5.10;2.60;;;;;;;15.50;29.71;96311.91;5016812;28;20056;-78
2022/04/18 09:54:53;;;;;;;5.67;2.77;;;;;;;15.95;27.85;96304.59;5051829;28;20484;-77
2022/04/18 09:57:29;;;;;;;4.83;2.60;;;;;;;15.70;29.58;96298.88;5015725;28;20438;-78
2022/04/18 09:59:56;;;;;;;5.23;2.50;;;;;;;15.96;28.03;96300.94;5030762;28;20040;-78
2022/04/18 10:02:24;;;;;;;5.60;2.93;;;;;;;16.81;27.92;96291.13;5044226;28;20474;-78
2022/04/18 10:04:51;;;;;;;5.87;3.20;;;;;;;16.83;28.94;96297.06;5049089;28;20045;-78
2022/04/18 10:07:17;;;;;;;6.87;2.90;;;;;;;16.84;29.11;96302.19;5039103;28;20028;-79
2022/04/18 10:09:43;;;;;;;4.97;2.70;;;;;;;16.09;28.09;96301.03;5022809;28;20037;-77
2022/04/18 10:12:11;;;;;;;5.43;2.50;;;;;;;16.70;28.52;96303.91;5036548;28;20033;-80
2022/04/18 10:14:39;;;;;;;7.87;3.67;;;;;;;16.53;29.08;96301.75;5041095;28;20594;-80
2022/04/18 10:17:07;;;;;;;5.77;2.90;;;;;;;16.56;28.50;96290.75;5042890;28;20095;-80
2022/04/18 10:19:32;;;;;;;5.37;3.17;;;;;;;16.72;29.44;96301.88;5023884;28;20047;-80
2022/04/18 10:22:28;;;;;;;5.07;2.67;;;;;;;17.25;27.26;96287.22;5032580;28;20064;-80
2022/04/18 10:25:29;;;;;;;5.70;3.08;;;;;;;17.68;27.51;96282.44;5033978;28;20131;-81
2022/04/18 10:28:08;;;;;;;6.32;2.90;;;;;;;17.73;28.20;96279.16;5026072;28;20378;-81
2022/04/18 10:30:37;;;;;;;7.65;2.72;;;;;;;17.33;27.65;96287.03;5034972;28;20033;-80
2022/04/18 10:33:04;;;;;;;6.68;3.50;;;;;;;16.89;27.83;96285.66;5037677;28;20028;-80
2022/04/18 10:35:30;;;;;;;7.70;3.03;;;;;;;17.18;27.36;96290.69;5053930;28;20086;-80
2022/04/18 10:37:56;;;;;;;6.83;3.30;;;;;;;17.54;27.52;96284.25;5072373;28;20040;-80
2022/04/18 10:40:23;;;;;;;5.40;3.10;;;;;;;17.58;27.26;96280.16;5037346;28;20032;-80
2022/04/18 10:42:49;;;;;;;6.22;3.20;;;;;;;17.90;27.26;96272.44;5071801;28;20105;-80
2022/04/18 10:45:21;;;;;;;6.82;3.47;;;;;;;16.78;28.78;96276.41;5043175;28;20041;-81
2022/04/18 10:47:56;;;;;;;4.95;2.50;;;;;;;16.36;28.65;96280.00;5052325;28;20578;-80
2022/04/18 10:50:24;;;;;;;6.25;2.85;;;;;;;17.41;27.78;96270.91;5053548;28;20109;-80
2022/04/18 10:53:14;;;;;;;4.97;3.08;;;;;;;17.71;27.83;96270.56;5051764;28;20052;-79
2022/04/18 10:55:51;;;;;;;5.82;2.90;;;;;;;17.63;26.49;96267.06;5014980;28;20033;-80
2022/04/18 10:58:21;;;;;;;9.32;4.55;;;;;;;17.91;27.31;96266.09;5015134;28;20037;-83
2022/04/18 11:00:55;;;;;;;4.55;2.30;;;;;;;17.43;28.24;96266.19;5017988;28;20418;-81
2022/04/18 11:03:55;;;;;;;5.60;3.22;;;;;;;17.34;26.89;96262.13;5020572;28;20044;-80
2022/04/18 11:06:24;;;;;;;4.78;2.35;;;;;;;17.11;27.07;96271.25;5036940;28;20032;-81
2022/04/18 11:09:07;;;;;;;5.07;2.42;;;;;;;16.91;27.25;96259.72;5024396;28;20594;-81
2022/04/18 11:12:01;;;;;;;6.25;2.38;;;;;;;16.53;27.81;96261.94;5034156;28;20063;-80
2022/04/18 11:14:29;;;;;;;3.97;1.90;;;;;;;17.25;25.82;96253.50;4995387;28;20083;-84
2022/04/18 11:17:00;;;;;;;5.95;2.80;;;;;;;15.95;27.47;96267.47;5047746;28;20128;-81
2022/04/18 11:19:29;;;;;;;4.77;2.03;;;;;;;16.51;27.34;96262.13;5047063;28;20410;-80
2022/04/18 11:21:55;;;;;;;4.30;2.00;;;;;;;16.76;28.21;96249.22;5012974;28;20102;-81
2022/04/18 11:24:44;;;;;;;4.50;2.23;;;;;;;16.73;27.76;96253.06;5013677;28;20068;-81
2022/04/18 11:27:21;;;;;;;5.07;2.53;;;;;;;16.16;28.39;96248.88;5015227;28;20057;-82
2022/04/18 11:29:54;;;;;;;8.27;2.77;;;;;;;17.55;27.34;96238.00;4997793;28;20913;-81
2022/04/18 11:32:22;;;;;;;6.18;2.40;;;;;;;17.81;27.06;96233.78;5002486;28;20441;-81
2022/04/18 11:34:50;;;;;;;4.97;2.60;;;;;;;16.63;28.63;96242.00;5032742;28;20045;-81
2022/04/18 11:37:28;;;;;;;6.00;2.95;;;;;;;17.14;28.55;96236.31;5017645;28;20032;-82
2022/04/18 11:40:15;;;;;;;2.92;1.88;;;;;;;18.98;26.28;96232.94;5034600;28;20102;-81
2022/04/18 11:42:42;;;;;;;5.13;2.38;;;;;;;18.33;26.73;96240.06;5051673;28;20075;-81
2022/04/18 11:45:29;;;;;;;5.43;2.63;;;;;;;17.91;27.12;96231.53;5034858;28;20041;-81
2022/04/18 11:47:54;;;;;;;6.10;2.70;;;;;;;17.52;27.65;96235.75;5034444;28;20127;-82
2022/04/18 11:50:23;;;;;;;4.85;2.40;;;;;;;17.84;27.12;96230.69;5014967;28;20188;-81
2022/04/18 11:53:11;;;;;;;3.88;2.33;;;;;;;17.69;28.14;96225.53;5031326;28;20044;-81
2022/04/18 11:55:45;;;;;;;4.78;2.60;;;;;;;18.04;27.39;96220.03;5035100;28;20043;-81
2022/04/18 11:58:12;;;;;;;4.70;2.40;;;;;;;18.06;29.19;96221.47;5036652;28;20082;-81
2022/04/18 12:09:08;;;;;;;3.08;1.60;;;;;;;18.10;27.78;96211.22;5046320;28;20029;-82
2022/04/18 12:11:35;;;;;;;4.07;1.90;;;;;;;19.57;26.35;96198.13;5017734;28;20115;-81
2022/04/18 12:14:01;;;;;;;4.93;2.50;;;;;;;17.14;27.66;96201.75;5048095;28;20035;-81
2022/04/18 12:16:27;;;;;;;7.50;3.03;;;;;;;18.61;25.99;96194.50;5009100;28;20996;-80
2022/04/18 12:18:54;;;;;;;3.55;1.85;;;;;;;18.71;27.11;96199.38;5026428;28;20036;-81
2022/04/18 12:21:19;;;;;;;3.63;2.08;;;;;;;18.10;27.22;96196.06;5003611;28;20063;-83
2022/04/18 12:23:53;;;;;;;3.88;2.20;;;;;;;18.26;27.42;96188.69;5017320;28;20485;-81
2022/04/18 12:26:19;;;;;;;5.88;2.03;;;;;;;18.19;28.37;96187.88;5017660;28;20029;-81
2022/04/18 12:28:44;;;;;;;4.97;2.53;;;;;;;17.96;26.80;96186.47;5030861;28;20202;-81